ADA weather

Adana Airport
Adana, Adana Province, Turkey

Public forecast

Using degrees Celsius for public forecast. Weather courtesy of forecast.io.

Current aviation weather report (METAR) for Adana Airport

Retrieved 2019/10/20 22:20 UTC (10 minutes ago):

LTAF 202220Z 22002KT 9999 SCT035 19/16 Q1016 NOSIG

Aviation forecast (TAF) for Adana Airport

Retrieved 2019/10/20 18:00 UTC (5 hours ago):

TAF LTAF 201640Z 2018/2118 VRB02KT 9999 SCT035 TEMPO 2018/2021 VRB15G25KT -TSRA SCT020CB BKN030 PROB40 TEMPO 2021/2024 VRB15G25KT -TSRA SCT020CB BKN030 TEMPO 2110/2114 VRB15G25KT -TSRA SCT020CB BKN030